sensor_id;sensor_type;location;lat;lon;timestamp;P1;durP1;ratioP1;P2;durP2;ratioP2
16039;SDS011;8124;48.634;8.120;2023-04-09T00:01:44;42.72;;;36.85;;
16039;SDS011;8124;48.634;8.120;2023-04-09T00:06:47;40.72;;;36.35;;
16039;SDS011;8124;48.634;8.120;2023-04-09T00:11:50;41.92;;;36.38;;
16039;SDS011;8124;48.634;8.120;2023-04-09T00:16:54;41.30;;;36.35;;
16039;SDS011;8124;48.634;8.120;2023-04-09T00:21:57;40.78;;;36.38;;
16039;SDS011;8124;48.634;8.120;2023-04-09T00:27:00;40.35;;;36.00;;
16039;SDS011;8124;48.634;8.120;2023-04-09T00:32:04;39.85;;;35.55;;
16039;SDS011;8124;48.634;8.120;2023-04-09T00:37:07;41.15;;;36.67;;
16039;SDS011;8124;48.634;8.120;2023-04-09T00:42:10;40.90;;;36.42;;
16039;SDS011;8124;48.634;8.120;2023-04-09T00:47:15;41.63;;;37.13;;
16039;SDS011;8124;48.634;8.120;2023-04-09T00:52:18;41.42;;;36.28;;
16039;SDS011;8124;48.634;8.120;2023-04-09T00:57:21;40.30;;;35.90;;
16039;SDS011;8124;48.634;8.120;2023-04-09T01:02:26;41.05;;;36.63;;
16039;SDS011;8124;48.634;8.120;2023-04-09T01:07:35;39.22;;;34.97;;
16039;SDS011;8124;48.634;8.120;2023-04-09T01:12:52;40.95;;;36.45;;
16039;SDS011;8124;48.634;8.120;2023-04-09T01:18:04;40.30;;;35.92;;
16039;SDS011;8124;48.634;8.120;2023-04-09T01:23:13;42.70;;;37.03;;
16039;SDS011;8124;48.634;8.120;2023-04-09T01:28:21;39.55;;;35.28;;
16039;SDS011;8124;48.634;8.120;2023-04-09T01:33:28;40.45;;;36.05;;
16039;SDS011;8124;48.634;8.120;2023-04-09T01:38:33;40.25;;;35.90;;
16039;SDS011;8124;48.634;8.120;2023-04-09T01:43:38;43.08;;;35.88;;
16039;SDS011;8124;48.634;8.120;2023-04-09T01:48:42;40.58;;;36.15;;
16039;SDS011;8124;48.634;8.120;2023-04-09T01:53:47;42.20;;;36.80;;
16039;SDS011;8124;48.634;8.120;2023-04-09T01:58:51;40.00;;;35.47;;
16039;SDS011;8124;48.634;8.120;2023-04-09T02:03:55;39.92;;;35.53;;
16039;SDS011;8124;48.634;8.120;2023-04-09T02:09:02;41.20;;;36.42;;
16039;SDS011;8124;48.634;8.120;2023-04-09T02:14:10;41.22;;;36.72;;
16039;SDS011;8124;48.634;8.120;2023-04-09T02:19:14;42.28;;;36.40;;
16039;SDS011;8124;48.634;8.120;2023-04-09T02:24:17;42.55;;;36.08;;
16039;SDS011;8124;48.634;8.120;2023-04-09T02:29:22;41.50;;;36.85;;
16039;SDS011;8124;48.634;8.120;2023-04-09T02:34:25;40.83;;;36.35;;
16039;SDS011;8124;48.634;8.120;2023-04-09T02:39:28;40.17;;;35.47;;
16039;SDS011;8124;48.634;8.120;2023-04-09T02:44:33;40.17;;;35.80;;
16039;SDS011;8124;48.634;8.120;2023-04-09T02:49:35;40.33;;;35.88;;
16039;SDS011;8124;48.634;8.120;2023-04-09T02:54:39;41.38;;;36.88;;
16039;SDS011;8124;48.634;8.120;2023-04-09T02:59:43;40.53;;;35.97;;
16039;SDS011;8124;48.634;8.120;2023-04-09T03:04:47;41.08;;;36.55;;
16039;SDS011;8124;48.634;8.120;2023-04-09T03:09:49;39.65;;;35.38;;
16039;SDS011;8124;48.634;8.120;2023-04-09T03:14:54;41.40;;;36.08;;
16039;SDS011;8124;48.634;8.120;2023-04-09T03:19:57;39.75;;;35.45;;
16039;SDS011;8124;48.634;8.120;2023-04-09T03:25:08;38.90;;;34.70;;
16039;SDS011;8124;48.634;8.120;2023-04-09T03:30:12;40.22;;;35.78;;
16039;SDS011;8124;48.634;8.120;2023-04-09T03:35:18;40.80;;;36.22;;
16039;SDS011;8124;48.634;8.120;2023-04-09T03:40:21;41.00;;;36.38;;
16039;SDS011;8124;48.634;8.120;2023-04-09T03:45:26;40.38;;;35.95;;
16039;SDS011;8124;48.634;8.120;2023-04-09T03:50:44;40.75;;;36.33;;
16039;SDS011;8124;48.634;8.120;2023-04-09T03:55:52;40.30;;;35.90;;
16039;SDS011;8124;48.634;8.120;2023-04-09T04:01:00;41.17;;;36.67;;
16039;SDS011;8124;48.634;8.120;2023-04-09T04:06:11;39.97;;;35.63;;
16039;SDS011;8124;48.634;8.120;2023-04-09T04:11:25;40.67;;;36.35;;
16039;SDS011;8124;48.634;8.120;2023-04-09T04:16:30;39.97;;;35.63;;
16039;SDS011;8124;48.634;8.120;2023-04-09T04:21:36;41.13;;;36.63;;
16039;SDS011;8124;48.634;8.120;2023-04-09T04:26:40;40.10;;;35.80;;
16039;SDS011;8124;48.634;8.120;2023-04-09T04:31:53;40.33;;;35.95;;
16039;SDS011;8124;48.634;8.120;2023-04-09T04:36:59;40.50;;;36.10;;
16039;SDS011;8124;48.634;8.120;2023-04-09T04:42:05;41.28;;;36.80;;
16039;SDS011;8124;48.634;8.120;2023-04-09T04:47:10;40.17;;;35.83;;
16039;SDS011;8124;48.634;8.120;2023-04-09T04:52:13;41.42;;;36.20;;
16039;SDS011;8124;48.634;8.120;2023-04-09T04:57:22;39.95;;;35.55;;
16039;SDS011;8124;48.634;8.120;2023-04-09T05:02:28;40.53;;;36.13;;
16039;SDS011;8124;48.634;8.120;2023-04-09T05:07:50;40.42;;;36.10;;
16039;SDS011;8124;48.634;8.120;2023-04-09T05:12:54;41.33;;;36.90;;
16039;SDS011;8124;48.634;8.120;2023-04-09T05:18:11;39.05;;;34.80;;
16039;SDS011;8124;48.634;8.120;2023-04-09T05:23:14;40.65;;;36.22;;
16039;SDS011;8124;48.634;8.120;2023-04-09T05:28:21;40.65;;;36.13;;
16039;SDS011;8124;48.634;8.120;2023-04-09T05:33:35;41.63;;;36.40;;
16039;SDS011;8124;48.634;8.120;2023-04-09T05:38:46;41.22;;;35.92;;
16039;SDS011;8124;48.634;8.120;2023-04-09T05:43:50;41.60;;;36.80;;
16039;SDS011;8124;48.634;8.120;2023-04-09T05:48:55;41.33;;;36.83;;
16039;SDS011;8124;48.634;8.120;2023-04-09T05:54:00;40.83;;;36.35;;
16039;SDS011;8124;48.634;8.120;2023-04-09T05:59:08;41.03;;;36.53;;
16039;SDS011;8124;48.634;8.120;2023-04-09T06:04:14;41.33;;;36.83;;
16039;SDS011;8124;48.634;8.120;2023-04-09T06:09:17;41.78;;;37.22;;
16039;SDS011;8124;48.634;8.120;2023-04-09T06:14:20;41.65;;;37.17;;
16039;SDS011;8124;48.634;8.120;2023-04-09T06:19:26;43.08;;;38.13;;
16039;SDS011;8124;48.634;8.120;2023-04-09T06:24:29;42.03;;;37.33;;
16039;SDS011;8124;48.634;8.120;2023-04-09T06:29:33;42.88;;;37.55;;
16039;SDS011;8124;48.634;8.120;2023-04-09T06:34:37;42.08;;;37.47;;
16039;SDS011;8124;48.634;8.120;2023-04-09T06:39:41;43.08;;;38.30;;
16039;SDS011;8124;48.634;8.120;2023-04-09T06:44:58;41.75;;;37.17;;
16039;SDS011;8124;48.634;8.120;2023-04-09T06:50:02;41.53;;;36.90;;
16039;SDS011;8124;48.634;8.120;2023-04-09T06:55:06;43.15;;;38.25;;
16039;SDS011;8124;48.634;8.120;2023-04-09T07:00:11;41.67;;;36.60;;
16039;SDS011;8124;48.634;8.120;2023-04-09T07:05:16;43.03;;;37.30;;
16039;SDS011;8124;48.634;8.120;2023-04-09T07:10:19;43.80;;;38.75;;
16039;SDS011;8124;48.634;8.120;2023-04-09T07:15:22;43.47;;;38.13;;
16039;SDS011;8124;48.634;8.120;2023-04-09T07:20:27;42.70;;;38.00;;
16039;SDS011;8124;48.634;8.120;2023-04-09T07:25:30;45.03;;;38.25;;
16039;SDS011;8124;48.634;8.120;2023-04-09T07:30:32;43.22;;;38.10;;
16039;SDS011;8124;48.634;8.120;2023-04-09T07:35:37;44.45;;;39.05;;
16039;SDS011;8124;48.634;8.120;2023-04-09T07:40:40;45.25;;;37.78;;
16039;SDS011;8124;48.634;8.120;2023-04-09T07:45:43;42.78;;;38.10;;
16039;SDS011;8124;48.634;8.120;2023-04-09T07:50:47;43.38;;;37.83;;
16039;SDS011;8124;48.634;8.120;2023-04-09T07:55:50;45.05;;;38.28;;
16039;SDS011;8124;48.634;8.120;2023-04-09T08:00:53;44.60;;;38.72;;
16039;SDS011;8124;48.634;8.120;2023-04-09T08:05:57;42.53;;;37.92;;
16039;SDS011;8124;48.634;8.120;2023-04-09T08:11:06;43.92;;;37.60;;
16039;SDS011;8124;48.634;8.120;2023-04-09T08:16:09;44.55;;;38.60;;
16039;SDS011;8124;48.634;8.120;2023-04-09T08:21:13;42.70;;;37.45;;
16039;SDS011;8124;48.634;8.120;2023-04-09T08:26:16;44.63;;;39.10;;
16039;SDS011;8124;48.634;8.120;2023-04-09T08:31:19;44.08;;;38.67;;
16039;SDS011;8124;48.634;8.120;2023-04-09T08:36:23;44.10;;;37.95;;
16039;SDS011;8124;48.634;8.120;2023-04-09T08:41:28;44.38;;;39.58;;
16039;SDS011;8124;48.634;8.120;2023-04-09T08:46:31;43.40;;;38.40;;
16039;SDS011;8124;48.634;8.120;2023-04-09T08:51:38;43.80;;;38.38;;
16039;SDS011;8124;48.634;8.120;2023-04-09T08:56:41;44.45;;;37.88;;
16039;SDS011;8124;48.634;8.120;2023-04-09T09:01:47;43.38;;;37.83;;
16039;SDS011;8124;48.634;8.120;2023-04-09T09:06:56;41.97;;;37.22;;
16039;SDS011;8124;48.634;8.120;2023-04-09T09:12:08;41.50;;;36.95;;
16039;SDS011;8124;48.634;8.120;2023-04-09T09:17:10;42.17;;;37.55;;
16039;SDS011;8124;48.634;8.120;2023-04-09T09:22:15;42.90;;;37.83;;
16039;SDS011;8124;48.634;8.120;2023-04-09T09:37:48;41.35;;;36.85;;
16039;SDS011;8124;48.634;8.120;2023-04-09T09:43:03;40.60;;;36.20;;
16039;SDS011;8124;48.634;8.120;2023-04-09T09:48:06;39.85;;;35.55;;
16039;SDS011;8124;48.634;8.120;2023-04-09T09:53:13;39.95;;;35.65;;
16039;SDS011;8124;48.634;8.120;2023-04-09T10:03:38;39.60;;;35.30;;
16039;SDS011;8124;48.634;8.120;2023-04-09T10:08:43;40.35;;;35.95;;
16039;SDS011;8124;48.634;8.120;2023-04-09T10:13:52;39.80;;;35.50;;
16039;SDS011;8124;48.634;8.120;2023-04-09T10:18:58;39.72;;;35.15;;
16039;SDS011;8124;48.634;8.120;2023-04-09T10:24:04;40.08;;;35.67;;
16039;SDS011;8124;48.634;8.120;2023-04-09T10:29:08;39.88;;;35.53;;
16039;SDS011;8124;48.634;8.120;2023-04-09T10:34:15;40.33;;;35.92;;
16039;SDS011;8124;48.634;8.120;2023-04-09T10:39:20;41.40;;;36.45;;
16039;SDS011;8124;48.634;8.120;2023-04-09T10:44:27;40.42;;;36.03;;
16039;SDS011;8124;48.634;8.120;2023-04-09T10:49:34;41.33;;;36.50;;
16039;SDS011;8124;48.634;8.120;2023-04-09T10:54:40;40.70;;;36.30;;
16039;SDS011;8124;48.634;8.120;2023-04-09T10:59:49;39.78;;;35.47;;
16039;SDS011;8124;48.634;8.120;2023-04-09T11:04:55;40.78;;;36.08;;
16039;SDS011;8124;48.634;8.120;2023-04-09T11:10:09;40.65;;;36.25;;
16039;SDS011;8124;48.634;8.120;2023-04-09T11:15:14;40.88;;;36.20;;
16039;SDS011;8124;48.634;8.120;2023-04-09T11:20:18;40.67;;;36.00;;
16039;SDS011;8124;48.634;8.120;2023-04-09T11:25:24;40.47;;;36.03;;
16039;SDS011;8124;48.634;8.120;2023-04-09T11:30:28;47.97;;;37.10;;
16039;SDS011;8124;48.634;8.120;2023-04-09T11:35:35;40.33;;;35.92;;
16039;SDS011;8124;48.634;8.120;2023-04-09T11:40:40;40.40;;;36.00;;
16039;SDS011;8124;48.634;8.120;2023-04-09T11:45:48;41.95;;;37.35;;
16039;SDS011;8124;48.634;8.120;2023-04-09T11:50:52;40.15;;;35.75;;
16039;SDS011;8124;48.634;8.120;2023-04-09T11:55:56;41.70;;;35.97;;
16039;SDS011;8124;48.634;8.120;2023-04-09T12:01:02;40.80;;;36.30;;
16039;SDS011;8124;48.634;8.120;2023-04-09T12:06:06;42.35;;;36.38;;
16039;SDS011;8124;48.634;8.120;2023-04-09T12:11:11;41.00;;;36.15;;
16039;SDS011;8124;48.634;8.120;2023-04-09T12:16:18;40.35;;;35.95;;
16039;SDS011;8124;48.634;8.120;2023-04-09T12:21:23;41.45;;;36.95;;
16039;SDS011;8124;48.634;8.120;2023-04-09T12:26:27;40.85;;;36.38;;
16039;SDS011;8124;48.634;8.120;2023-04-09T12:31:30;41.33;;;36.83;;
16039;SDS011;8124;48.634;8.120;2023-04-09T12:36:33;41.60;;;36.72;;
16039;SDS011;8124;48.634;8.120;2023-04-09T12:41:38;41.15;;;36.60;;
16039;SDS011;8124;48.634;8.120;2023-04-09T12:46:41;41.42;;;36.92;;
16039;SDS011;8124;48.634;8.120;2023-04-09T12:51:43;41.60;;;37.03;;
16039;SDS011;8124;48.634;8.120;2023-04-09T12:56:48;40.60;;;36.15;;
16039;SDS011;8124;48.634;8.120;2023-04-09T13:01:51;43.25;;;37.70;;
16039;SDS011;8124;48.634;8.120;2023-04-09T13:06:54;40.80;;;36.40;;
16039;SDS011;8124;48.634;8.120;2023-04-09T13:11:58;41.05;;;36.20;;
16039;SDS011;8124;48.634;8.120;2023-04-09T13:17:01;41.38;;;36.88;;
16039;SDS011;8124;48.634;8.120;2023-04-09T13:22:04;40.78;;;36.28;;
16039;SDS011;8124;48.634;8.120;2023-04-09T13:27:10;41.38;;;36.83;;
16039;SDS011;8124;48.634;8.120;2023-04-09T13:32:13;41.78;;;37.17;;
16039;SDS011;8124;48.634;8.120;2023-04-09T13:37:18;41.55;;;36.78;;
16039;SDS011;8124;48.634;8.120;2023-04-09T13:42:22;41.53;;;36.95;;
16039;SDS011;8124;48.634;8.120;2023-04-09T13:47:31;42.28;;;37.55;;
16039;SDS011;8124;48.634;8.120;2023-04-09T13:52:34;41.15;;;36.60;;
16039;SDS011;8124;48.634;8.120;2023-04-09T13:57:38;41.47;;;36.95;;
16039;SDS011;8124;48.634;8.120;2023-04-09T14:02:44;41.38;;;36.88;;
16039;SDS011;8124;48.634;8.120;2023-04-09T14:07:47;41.05;;;36.55;;
16039;SDS011;8124;48.634;8.120;2023-04-09T14:12:51;41.03;;;36.53;;
16039;SDS011;8124;48.634;8.120;2023-04-09T14:17:54;41.90;;;37.30;;
16039;SDS011;8124;48.634;8.120;2023-04-09T14:22:58;41.50;;;37.00;;
16039;SDS011;8124;48.634;8.120;2023-04-09T14:28:02;41.63;;;36.75;;
16039;SDS011;8124;48.634;8.120;2023-04-09T14:33:06;41.83;;;37.28;;
16039;SDS011;8124;48.634;8.120;2023-04-09T14:38:10;41.25;;;36.75;;
16039;SDS011;8124;48.634;8.120;2023-04-09T14:43:15;44.60;;;36.70;;
16039;SDS011;8124;48.634;8.120;2023-04-09T14:48:18;41.55;;;36.97;;
16039;SDS011;8124;48.634;8.120;2023-04-09T14:53:21;41.85;;;37.28;;
16039;SDS011;8124;48.634;8.120;2023-04-09T14:58:25;41.97;;;37.38;;
16039;SDS011;8124;48.634;8.120;2023-04-09T15:03:30;41.80;;;37.20;;
16039;SDS011;8124;48.634;8.120;2023-04-09T15:08:33;41.35;;;36.85;;
16039;SDS011;8124;48.634;8.120;2023-04-09T15:13:39;40.80;;;36.38;;
16039;SDS011;8124;48.634;8.120;2023-04-09T15:18:41;41.78;;;37.17;;
16039;SDS011;8124;48.634;8.120;2023-04-09T15:23:50;40.78;;;36.28;;
16039;SDS011;8124;48.634;8.120;2023-04-09T15:28:55;41.25;;;36.58;;
16039;SDS011;8124;48.634;8.120;2023-04-09T15:34:03;42.30;;;36.72;;
16039;SDS011;8124;48.634;8.120;2023-04-09T15:39:06;43.03;;;38.33;;
16039;SDS011;8124;48.634;8.120;2023-04-09T15:44:11;41.70;;;36.50;;
16039;SDS011;8124;48.634;8.120;2023-04-09T15:49:15;42.00;;;37.35;;
16039;SDS011;8124;48.634;8.120;2023-04-09T15:54:19;41.40;;;36.90;;
16039;SDS011;8124;48.634;8.120;2023-04-09T15:59:24;41.58;;;37.08;;
16039;SDS011;8124;48.634;8.120;2023-04-09T16:04:27;41.72;;;37.20;;
16039;SDS011;8124;48.634;8.120;2023-04-09T16:09:29;41.88;;;37.28;;
16039;SDS011;8124;48.634;8.120;2023-04-09T16:14:34;43.90;;;39.17;;
16039;SDS011;8124;48.634;8.120;2023-04-09T16:19:40;41.72;;;37.20;;
16039;SDS011;8124;48.634;8.120;2023-04-09T16:24:44;41.33;;;36.72;;
16039;SDS011;8124;48.634;8.120;2023-04-09T16:29:48;41.08;;;36.53;;
16039;SDS011;8124;48.634;8.120;2023-04-09T16:34:52;42.05;;;37.45;;
16039;SDS011;8124;48.634;8.120;2023-04-09T16:39:56;41.20;;;36.55;;
16039;SDS011;8124;48.634;8.120;2023-04-09T16:45:00;41.45;;;36.95;;
16039;SDS011;8124;48.634;8.120;2023-04-09T16:50:05;41.05;;;36.63;;
16039;SDS011;8124;48.634;8.120;2023-04-09T16:55:13;41.10;;;36.63;;
16039;SDS011;8124;48.634;8.120;2023-04-09T17:00:17;41.67;;;36.75;;
16039;SDS011;8124;48.634;8.120;2023-04-09T17:05:21;42.10;;;36.67;;
16039;SDS011;8124;48.634;8.120;2023-04-09T17:10:25;42.47;;;37.88;;
16039;SDS011;8124;48.634;8.120;2023-04-09T17:15:30;41.83;;;36.92;;
16039;SDS011;8124;48.634;8.120;2023-04-09T17:20:33;41.88;;;37.28;;
16039;SDS011;8124;48.634;8.120;2023-04-09T17:25:36;42.50;;;37.40;;
16039;SDS011;8124;48.634;8.120;2023-04-09T17:30:40;42.17;;;37.58;;
16039;SDS011;8124;48.634;8.120;2023-04-09T17:35:44;41.55;;;37.05;;
16039;SDS011;8124;48.634;8.120;2023-04-09T17:40:47;41.95;;;37.10;;
16039;SDS011;8124;48.634;8.120;2023-04-09T17:45:51;42.22;;;37.50;;
16039;SDS011;8124;48.634;8.120;2023-04-09T17:50:54;42.22;;;37.58;;
16039;SDS011;8124;48.634;8.120;2023-04-09T17:55:57;41.58;;;37.08;;
16039;SDS011;8124;48.634;8.120;2023-04-09T18:01:06;46.22;;;39.53;;
16039;SDS011;8124;48.634;8.120;2023-04-09T18:06:10;45.22;;;38.80;;
16039;SDS011;8124;48.634;8.120;2023-04-09T18:11:13;44.38;;;38.97;;
16039;SDS011;8124;48.634;8.120;2023-04-09T18:16:19;43.58;;;38.38;;
16039;SDS011;8124;48.634;8.120;2023-04-09T18:21:23;43.83;;;37.60;;
16039;SDS011;8124;48.634;8.120;2023-04-09T18:26:27;41.75;;;37.17;;
16039;SDS011;8124;48.634;8.120;2023-04-09T18:31:31;42.42;;;37.33;;
16039;SDS011;8124;48.634;8.120;2023-04-09T18:36:34;43.08;;;38.35;;
16039;SDS011;8124;48.634;8.120;2023-04-09T18:41:38;44.95;;;39.78;;
16039;SDS011;8124;48.634;8.120;2023-04-09T18:46:42;43.00;;;38.00;;
16039;SDS011;8124;48.634;8.120;2023-04-09T18:51:45;42.63;;;38.03;;
16039;SDS011;8124;48.634;8.120;2023-04-09T18:56:48;49.33;;;41.20;;
16039;SDS011;8124;48.634;8.120;2023-04-09T19:01:52;43.78;;;38.50;;
16039;SDS011;8124;48.634;8.120;2023-04-09T19:06:56;41.95;;;37.33;;
16039;SDS011;8124;48.634;8.120;2023-04-09T19:11:59;41.22;;;36.72;;
16039;SDS011;8124;48.634;8.120;2023-04-09T19:17:03;40.92;;;36.47;;
16039;SDS011;8124;48.634;8.120;2023-04-09T19:22:06;41.67;;;36.97;;
16039;SDS011;8124;48.634;8.120;2023-04-09T19:27:09;41.08;;;36.67;;
16039;SDS011;8124;48.634;8.120;2023-04-09T19:32:14;40.70;;;36.30;;
16039;SDS011;8124;48.634;8.120;2023-04-09T19:37:17;43.70;;;39.00;;
16039;SDS011;8124;48.634;8.120;2023-04-09T19:42:20;41.47;;;36.97;;
16039;SDS011;8124;48.634;8.120;2023-04-09T19:47:33;42.65;;;37.40;;
16039;SDS011;8124;48.634;8.120;2023-04-09T19:52:36;41.92;;;37.30;;
16039;SDS011;8124;48.634;8.120;2023-04-09T19:57:41;41.72;;;37.13;;
16039;SDS011;8124;48.634;8.120;2023-04-09T20:02:47;43.10;;;37.00;;
16039;SDS011;8124;48.634;8.120;2023-04-09T20:07:51;41.65;;;36.78;;
16039;SDS011;8124;48.634;8.120;2023-04-09T20:12:54;40.92;;;36.13;;
16039;SDS011;8124;48.634;8.120;2023-04-09T20:17:58;41.65;;;37.15;;
16039;SDS011;8124;48.634;8.120;2023-04-09T20:23:01;41.55;;;36.55;;
16039;SDS011;8124;48.634;8.120;2023-04-09T20:28:05;41.95;;;36.65;;
16039;SDS011;8124;48.634;8.120;2023-04-09T20:33:11;41.17;;;36.67;;
16039;SDS011;8124;48.634;8.120;2023-04-09T20:38:14;42.50;;;37.63;;
16039;SDS011;8124;48.634;8.120;2023-04-09T20:43:20;41.25;;;36.65;;
16039;SDS011;8124;48.634;8.120;2023-04-09T20:48:25;42.38;;;37.33;;
16039;SDS011;8124;48.634;8.120;2023-04-09T20:53:32;41.20;;;36.55;;
16039;SDS011;8124;48.634;8.120;2023-04-09T20:58:34;42.08;;;37.03;;
16039;SDS011;8124;48.634;8.120;2023-04-09T21:03:39;42.53;;;36.97;;
16039;SDS011;8124;48.634;8.120;2023-04-09T21:08:42;41.42;;;36.88;;
16039;SDS011;8124;48.634;8.120;2023-04-09T21:13:45;41.80;;;37.13;;
16039;SDS011;8124;48.634;8.120;2023-04-09T21:18:56;43.75;;;37.55;;
16039;SDS011;8124;48.634;8.120;2023-04-09T21:24:01;43.80;;;38.33;;
16039;SDS011;8124;48.634;8.120;2023-04-09T21:29:04;40.88;;;36.38;;
16039;SDS011;8124;48.634;8.120;2023-04-09T21:34:08;42.40;;;37.05;;
16039;SDS011;8124;48.634;8.120;2023-04-09T21:39:11;41.90;;;37.08;;
16039;SDS011;8124;48.634;8.120;2023-04-09T21:44:14;42.47;;;37.30;;
16039;SDS011;8124;48.634;8.120;2023-04-09T21:49:18;42.05;;;36.92;;
16039;SDS011;8124;48.634;8.120;2023-04-09T21:54:22;40.97;;;36.47;;
16039;SDS011;8124;48.634;8.120;2023-04-09T21:59:25;42.55;;;37.33;;
16039;SDS011;8124;48.634;8.120;2023-04-09T22:04:29;42.72;;;36.55;;
16039;SDS011;8124;48.634;8.120;2023-04-09T22:09:33;41.45;;;36.92;;
16039;SDS011;8124;48.634;8.120;2023-04-09T22:14:36;41.00;;;36.40;;
16039;SDS011;8124;48.634;8.120;2023-04-09T22:19:43;41.40;;;36.88;;
16039;SDS011;8124;48.634;8.120;2023-04-09T22:24:46;41.05;;;36.55;;
16039;SDS011;8124;48.634;8.120;2023-04-09T22:29:49;40.63;;;36.03;;
16039;SDS011;8124;48.634;8.120;2023-04-09T22:34:54;41.10;;;36.55;;
16039;SDS011;8124;48.634;8.120;2023-04-09T22:39:56;42.30;;;36.00;;
16039;SDS011;8124;48.634;8.120;2023-04-09T22:44:59;41.63;;;36.58;;
16039;SDS011;8124;48.634;8.120;2023-04-09T22:50:04;40.92;;;36.33;;
16039;SDS011;8124;48.634;8.120;2023-04-09T22:55:08;41.00;;;36.45;;
16039;SDS011;8124;48.634;8.120;2023-04-09T23:00:13;41.17;;;36.65;;
16039;SDS011;8124;48.634;8.120;2023-04-09T23:05:18;40.92;;;36.38;;
16039;SDS011;8124;48.634;8.120;2023-04-09T23:10:21;41.22;;;36.70;;
16039;SDS011;8124;48.634;8.120;2023-04-09T23:15:25;41.25;;;36.30;;
16039;SDS011;8124;48.634;8.120;2023-04-09T23:20:29;40.70;;;36.30;;
16039;SDS011;8124;48.634;8.120;2023-04-09T23:25:32;41.60;;;37.05;;
16039;SDS011;8124;48.634;8.120;2023-04-09T23:30:35;40.90;;;36.42;;
16039;SDS011;8124;48.634;8.120;2023-04-09T23:35:40;41.78;;;37.17;;
16039;SDS011;8124;48.634;8.120;2023-04-09T23:40:42;42.22;;;37.17;;
16039;SDS011;8124;48.634;8.120;2023-04-09T23:45:47;40.55;;;36.15;;
16039;SDS011;8124;48.634;8.120;2023-04-09T23:50:52;41.15;;;36.25;;
16039;SDS011;8124;48.634;8.120;2023-04-09T23:55:55;40.75;;;36.13;;
